sensor_id;sensor_type;location;lat;lon;timestamp;P1;durP1;ratioP1;P2;durP2;ratioP2
21245;SDS011;10781;50.928;4.440;2023-07-02T00:00:02;22.05;;;12.90;;
21245;SDS011;10781;50.928;4.440;2023-07-02T00:02:30;28.38;;;12.98;;
21245;SDS011;10781;50.928;4.440;2023-07-02T00:04:55;20.48;;;12.40;;
21245;SDS011;10781;50.928;4.440;2023-07-02T00:07:21;24.48;;;13.07;;
21245;SDS011;10781;50.928;4.440;2023-07-02T00:09:47;25.27;;;13.32;;
21245;SDS011;10781;50.928;4.440;2023-07-02T00:12:13;23.70;;;12.38;;
21245;SDS011;10781;50.928;4.440;2023-07-02T00:14:39;24.30;;;12.70;;
21245;SDS011;10781;50.928;4.440;2023-07-02T00:17:04;27.00;;;13.35;;
21245;SDS011;10781;50.928;4.440;2023-07-02T00:19:30;25.13;;;12.98;;
21245;SDS011;10781;50.928;4.440;2023-07-02T00:21:56;25.10;;;13.10;;
21245;SDS011;10781;50.928;4.440;2023-07-02T00:24:23;26.50;;;13.00;;
21245;SDS011;10781;50.928;4.440;2023-07-02T00:26:48;22.77;;;13.80;;
21245;SDS011;10781;50.928;4.440;2023-07-02T00:29:14;26.52;;;14.75;;
21245;SDS011;10781;50.928;4.440;2023-07-02T00:31:40;22.42;;;13.07;;
21245;SDS011;10781;50.928;4.440;2023-07-02T00:34:05;28.98;;;13.52;;
21245;SDS011;10781;50.928;4.440;2023-07-02T00:36:31;28.70;;;13.75;;
21245;SDS011;10781;50.928;4.440;2023-07-02T00:38:57;27.13;;;14.70;;
21245;SDS011;10781;50.928;4.440;2023-07-02T00:41:23;24.13;;;13.80;;
21245;SDS011;10781;50.928;4.440;2023-07-02T00:43:49;35.08;;;15.38;;
21245;SDS011;10781;50.928;4.440;2023-07-02T00:46:19;30.27;;;14.38;;
21245;SDS011;10781;50.928;4.440;2023-07-02T00:48:47;29.23;;;13.98;;
21245;SDS011;10781;50.928;4.440;2023-07-02T00:51:17;24.27;;;14.18;;
21245;SDS011;10781;50.928;4.440;2023-07-02T00:53:44;26.33;;;14.55;;
21245;SDS011;10781;50.928;4.440;2023-07-02T00:56:12;32.15;;;14.98;;
21245;SDS011;10781;50.928;4.440;2023-07-02T00:58:39;29.73;;;15.00;;
21245;SDS011;10781;50.928;4.440;2023-07-02T01:01:12;29.60;;;14.70;;
21245;SDS011;10781;50.928;4.440;2023-07-02T01:03:39;29.40;;;14.70;;
21245;SDS011;10781;50.928;4.440;2023-07-02T01:06:17;26.27;;;15.23;;
21245;SDS011;10781;50.928;4.440;2023-07-02T01:08:45;26.60;;;14.60;;
21245;SDS011;10781;50.928;4.440;2023-07-02T01:11:10;27.50;;;14.65;;
21245;SDS011;10781;50.928;4.440;2023-07-02T01:13:36;28.80;;;15.05;;
21245;SDS011;10781;50.928;4.440;2023-07-02T01:16:02;30.85;;;16.17;;
21245;SDS011;10781;50.928;4.440;2023-07-02T01:18:28;28.40;;;14.90;;
21245;SDS011;10781;50.928;4.440;2023-07-02T01:20:55;27.38;;;15.48;;
21245;SDS011;10781;50.928;4.440;2023-07-02T01:23:21;28.42;;;15.27;;
21245;SDS011;10781;50.928;4.440;2023-07-02T01:25:47;29.73;;;15.82;;
21245;SDS011;10781;50.928;4.440;2023-07-02T01:28:12;31.70;;;15.48;;
21245;SDS011;10781;50.928;4.440;2023-07-02T01:30:38;34.47;;;15.52;;
21245;SDS011;10781;50.928;4.440;2023-07-02T01:33:04;30.13;;;16.65;;
21245;SDS011;10781;50.928;4.440;2023-07-02T01:35:30;32.15;;;16.25;;
21245;SDS011;10781;50.928;4.440;2023-07-02T01:37:55;32.63;;;15.73;;
21245;SDS011;10781;50.928;4.440;2023-07-02T01:40:22;29.20;;;16.02;;
21245;SDS011;10781;50.928;4.440;2023-07-02T01:42:47;33.92;;;16.17;;
21245;SDS011;10781;50.928;4.440;2023-07-02T01:45:13;32.28;;;15.98;;
21245;SDS011;10781;50.928;4.440;2023-07-02T01:47:38;35.03;;;16.10;;
21245;SDS011;10781;50.928;4.440;2023-07-02T01:50:04;27.73;;;15.38;;
21245;SDS011;10781;50.928;4.440;2023-07-02T01:52:30;29.63;;;15.93;;
21245;SDS011;10781;50.928;4.440;2023-07-02T01:54:58;33.05;;;17.00;;
21245;SDS011;10781;50.928;4.440;2023-07-02T01:57:24;32.22;;;16.35;;
21245;SDS011;10781;50.928;4.440;2023-07-02T01:59:50;36.22;;;16.48;;
21245;SDS011;10781;50.928;4.440;2023-07-02T02:02:16;29.00;;;15.90;;
21245;SDS011;10781;50.928;4.440;2023-07-02T02:04:41;29.58;;;15.90;;
21245;SDS011;10781;50.928;4.440;2023-07-02T02:07:07;30.48;;;17.00;;
21245;SDS011;10781;50.928;4.440;2023-07-02T02:09:32;33.97;;;16.27;;
21245;SDS011;10781;50.928;4.440;2023-07-02T02:11:58;36.75;;;18.17;;
21245;SDS011;10781;50.928;4.440;2023-07-02T02:14:24;31.75;;;16.60;;
21245;SDS011;10781;50.928;4.440;2023-07-02T02:16:49;38.17;;;17.33;;
21245;SDS011;10781;50.928;4.440;2023-07-02T02:19:15;32.33;;;16.38;;
21245;SDS011;10781;50.928;4.440;2023-07-02T02:21:41;37.00;;;17.10;;
21245;SDS011;10781;50.928;4.440;2023-07-02T02:24:07;31.25;;;16.83;;
21245;SDS011;10781;50.928;4.440;2023-07-02T02:26:33;36.53;;;17.80;;
21245;SDS011;10781;50.928;4.440;2023-07-02T02:28:59;28.52;;;17.17;;
21245;SDS011;10781;50.928;4.440;2023-07-02T02:31:25;34.47;;;17.10;;
21245;SDS011;10781;50.928;4.440;2023-07-02T02:33:51;31.85;;;17.50;;
21245;SDS011;10781;50.928;4.440;2023-07-02T02:36:17;38.88;;;17.70;;
21245;SDS011;10781;50.928;4.440;2023-07-02T02:38:42;37.45;;;18.50;;
21245;SDS011;10781;50.928;4.440;2023-07-02T02:41:08;38.78;;;18.40;;
21245;SDS011;10781;50.928;4.440;2023-07-02T02:43:34;37.45;;;18.13;;
21245;SDS011;10781;50.928;4.440;2023-07-02T02:46:00;37.08;;;18.08;;
21245;SDS011;10781;50.928;4.440;2023-07-02T02:48:25;35.88;;;17.77;;
21245;SDS011;10781;50.928;4.440;2023-07-02T02:50:51;34.88;;;17.35;;
21245;SDS011;10781;50.928;4.440;2023-07-02T02:53:16;37.28;;;18.15;;
21245;SDS011;10781;50.928;4.440;2023-07-02T02:55:42;38.15;;;18.15;;
21245;SDS011;10781;50.928;4.440;2023-07-02T02:58:08;35.30;;;18.35;;
21245;SDS011;10781;50.928;4.440;2023-07-02T03:00:33;38.45;;;18.83;;
21245;SDS011;10781;50.928;4.440;2023-07-02T03:02:59;37.53;;;18.60;;
21245;SDS011;10781;50.928;4.440;2023-07-02T03:05:25;34.22;;;18.60;;
21245;SDS011;10781;50.928;4.440;2023-07-02T03:07:51;36.97;;;18.35;;
21245;SDS011;10781;50.928;4.440;2023-07-02T03:10:17;37.00;;;19.13;;
21245;SDS011;10781;50.928;4.440;2023-07-02T03:12:43;34.85;;;18.88;;
21245;SDS011;10781;50.928;4.440;2023-07-02T03:15:08;34.50;;;18.40;;
21245;SDS011;10781;50.928;4.440;2023-07-02T03:17:35;41.33;;;19.20;;
21245;SDS011;10781;50.928;4.440;2023-07-02T03:20:01;34.55;;;18.08;;
21245;SDS011;10781;50.928;4.440;2023-07-02T03:22:29;36.42;;;18.63;;
21245;SDS011;10781;50.928;4.440;2023-07-02T03:24:55;39.42;;;18.70;;
21245;SDS011;10781;50.928;4.440;2023-07-02T03:27:20;35.25;;;18.92;;
21245;SDS011;10781;50.928;4.440;2023-07-02T03:29:46;35.45;;;18.48;;
21245;SDS011;10781;50.928;4.440;2023-07-02T03:32:13;41.67;;;19.13;;
21245;SDS011;10781;50.928;4.440;2023-07-02T03:34:38;36.45;;;18.95;;
21245;SDS011;10781;50.928;4.440;2023-07-02T03:37:04;38.15;;;19.48;;
21245;SDS011;10781;50.928;4.440;2023-07-02T03:39:30;38.90;;;18.52;;
21245;SDS011;10781;50.928;4.440;2023-07-02T03:41:55;38.85;;;19.10;;
21245;SDS011;10781;50.928;4.440;2023-07-02T03:44:21;38.67;;;19.98;;
21245;SDS011;10781;50.928;4.440;2023-07-02T03:46:47;40.72;;;19.55;;
21245;SDS011;10781;50.928;4.440;2023-07-02T03:49:12;39.42;;;18.58;;
21245;SDS011;10781;50.928;4.440;2023-07-02T03:51:38;45.42;;;20.70;;
21245;SDS011;10781;50.928;4.440;2023-07-02T03:54:04;39.97;;;18.23;;
21245;SDS011;10781;50.928;4.440;2023-07-02T03:56:29;36.60;;;19.20;;
21245;SDS011;10781;50.928;4.440;2023-07-02T03:58:55;38.60;;;19.10;;
21245;SDS011;10781;50.928;4.440;2023-07-02T04:01:21;39.60;;;19.95;;
21245;SDS011;10781;50.928;4.440;2023-07-02T04:03:50;41.22;;;20.40;;
21245;SDS011;10781;50.928;4.440;2023-07-02T04:06:17;39.25;;;20.25;;
21245;SDS011;10781;50.928;4.440;2023-07-02T04:08:43;49.45;;;20.80;;
21245;SDS011;10781;50.928;4.440;2023-07-02T04:11:09;41.38;;;21.23;;
21245;SDS011;10781;50.928;4.440;2023-07-02T04:13:36;40.78;;;19.95;;
21245;SDS011;10781;50.928;4.440;2023-07-02T04:16:02;46.20;;;21.35;;
21245;SDS011;10781;50.928;4.440;2023-07-02T04:18:28;45.33;;;20.00;;
21245;SDS011;10781;50.928;4.440;2023-07-02T04:20:54;39.20;;;20.73;;
21245;SDS011;10781;50.928;4.440;2023-07-02T04:23:20;48.55;;;21.20;;
21245;SDS011;10781;50.928;4.440;2023-07-02T04:25:46;45.10;;;20.35;;
21245;SDS011;10781;50.928;4.440;2023-07-02T04:28:11;43.40;;;21.17;;
21245;SDS011;10781;50.928;4.440;2023-07-02T04:30:37;43.38;;;20.35;;
21245;SDS011;10781;50.928;4.440;2023-07-02T04:33:02;44.40;;;21.00;;
21245;SDS011;10781;50.928;4.440;2023-07-02T04:35:30;44.80;;;21.00;;
21245;SDS011;10781;50.928;4.440;2023-07-02T04:37:56;46.63;;;22.20;;
21245;SDS011;10781;50.928;4.440;2023-07-02T04:40:22;47.78;;;22.10;;
21245;SDS011;10781;50.928;4.440;2023-07-02T04:42:48;42.92;;;21.60;;
21245;SDS011;10781;50.928;4.440;2023-07-02T04:45:14;41.88;;;21.45;;
21245;SDS011;10781;50.928;4.440;2023-07-02T04:47:44;50.92;;;22.67;;
21245;SDS011;10781;50.928;4.440;2023-07-02T04:50:10;50.20;;;23.00;;
21245;SDS011;10781;50.928;4.440;2023-07-02T04:52:39;48.58;;;21.67;;
21245;SDS011;10781;50.928;4.440;2023-07-02T04:55:05;45.78;;;22.23;;
21245;SDS011;10781;50.928;4.440;2023-07-02T04:57:31;50.83;;;22.95;;
21245;SDS011;10781;50.928;4.440;2023-07-02T04:59:57;48.03;;;22.67;;
21245;SDS011;10781;50.928;4.440;2023-07-02T05:02:23;46.55;;;23.00;;
21245;SDS011;10781;50.928;4.440;2023-07-02T05:04:48;51.95;;;23.67;;
21245;SDS011;10781;50.928;4.440;2023-07-02T05:07:15;41.67;;;21.85;;
21245;SDS011;10781;50.928;4.440;2023-07-02T05:09:41;48.17;;;24.15;;
21245;SDS011;10781;50.928;4.440;2023-07-02T05:12:07;49.63;;;23.10;;
21245;SDS011;10781;50.928;4.440;2023-07-02T05:14:33;47.80;;;22.10;;
21245;SDS011;10781;50.928;4.440;2023-07-02T05:16:58;54.80;;;23.58;;
21245;SDS011;10781;50.928;4.440;2023-07-02T05:19:24;54.92;;;23.23;;
21245;SDS011;10781;50.928;4.440;2023-07-02T05:21:50;51.20;;;22.77;;
21245;SDS011;10781;50.928;4.440;2023-07-02T05:24:15;49.28;;;23.38;;
21245;SDS011;10781;50.928;4.440;2023-07-02T05:26:41;47.65;;;22.23;;
21245;SDS011;10781;50.928;4.440;2023-07-02T05:29:07;48.25;;;23.25;;
21245;SDS011;10781;50.928;4.440;2023-07-02T05:31:32;45.83;;;22.70;;
21245;SDS011;10781;50.928;4.440;2023-07-02T05:33:59;46.17;;;22.85;;
21245;SDS011;10781;50.928;4.440;2023-07-02T05:36:25;47.00;;;23.20;;
21245;SDS011;10781;50.928;4.440;2023-07-02T05:38:50;49.33;;;24.35;;
21245;SDS011;10781;50.928;4.440;2023-07-02T05:41:22;46.03;;;22.58;;
21245;SDS011;10781;50.928;4.440;2023-07-02T05:43:48;46.28;;;22.50;;
21245;SDS011;10781;50.928;4.440;2023-07-02T05:46:14;50.95;;;23.25;;
21245;SDS011;10781;50.928;4.440;2023-07-02T05:48:43;47.30;;;22.88;;
21245;SDS011;10781;50.928;4.440;2023-07-02T05:51:08;45.38;;;22.65;;
21245;SDS011;10781;50.928;4.440;2023-07-02T05:53:34;44.60;;;22.52;;
21245;SDS011;10781;50.928;4.440;2023-07-02T05:56:02;43.22;;;21.38;;
21245;SDS011;10781;50.928;4.440;2023-07-02T05:58:27;50.83;;;22.75;;
21245;SDS011;10781;50.928;4.440;2023-07-02T06:00:55;47.45;;;22.13;;
21245;SDS011;10781;50.928;4.440;2023-07-02T06:03:20;40.20;;;21.33;;
21245;SDS011;10781;50.928;4.440;2023-07-02T06:05:49;45.80;;;21.95;;
21245;SDS011;10781;50.928;4.440;2023-07-02T06:08:15;43.10;;;21.50;;
21245;SDS011;10781;50.928;4.440;2023-07-02T06:10:42;40.22;;;21.55;;
21245;SDS011;10781;50.928;4.440;2023-07-02T06:13:09;39.38;;;20.90;;
21245;SDS011;10781;50.928;4.440;2023-07-02T06:15:34;45.28;;;21.58;;
21245;SDS011;10781;50.928;4.440;2023-07-02T06:18:00;42.63;;;21.33;;
21245;SDS011;10781;50.928;4.440;2023-07-02T06:20:26;40.55;;;20.30;;
21245;SDS011;10781;50.928;4.440;2023-07-02T06:22:52;38.42;;;19.55;;
21245;SDS011;10781;50.928;4.440;2023-07-02T06:25:17;41.00;;;19.77;;
21245;SDS011;10781;50.928;4.440;2023-07-02T06:27:43;40.42;;;19.20;;
21245;SDS011;10781;50.928;4.440;2023-07-02T06:30:08;39.95;;;18.95;;
21245;SDS011;10781;50.928;4.440;2023-07-02T06:32:34;34.15;;;18.52;;
21245;SDS011;10781;50.928;4.440;2023-07-02T06:35:00;40.40;;;18.73;;
21245;SDS011;10781;50.928;4.440;2023-07-02T06:37:26;35.30;;;17.85;;
21245;SDS011;10781;50.928;4.440;2023-07-02T06:39:51;37.53;;;18.33;;
21245;SDS011;10781;50.928;4.440;2023-07-02T06:42:17;35.75;;;18.65;;
21245;SDS011;10781;50.928;4.440;2023-07-02T06:44:43;38.47;;;17.75;;
21245;SDS011;10781;50.928;4.440;2023-07-02T06:47:08;28.88;;;14.38;;
21245;SDS011;10781;50.928;4.440;2023-07-02T06:49:34;32.00;;;15.63;;
21245;SDS011;10781;50.928;4.440;2023-07-02T06:52:00;28.60;;;14.52;;
21245;SDS011;10781;50.928;4.440;2023-07-02T06:54:26;30.00;;;15.93;;
21245;SDS011;10781;50.928;4.440;2023-07-02T06:56:52;28.85;;;14.38;;
21245;SDS011;10781;50.928;4.440;2023-07-02T06:59:21;34.03;;;15.05;;
21245;SDS011;10781;50.928;4.440;2023-07-02T07:01:47;29.60;;;14.50;;
21245;SDS011;10781;50.928;4.440;2023-07-02T07:04:14;29.00;;;14.13;;
21245;SDS011;10781;50.928;4.440;2023-07-02T07:06:40;23.83;;;11.85;;
21245;SDS011;10781;50.928;4.440;2023-07-02T07:09:06;22.75;;;11.48;;
21245;SDS011;10781;50.928;4.440;2023-07-02T07:11:32;25.33;;;11.48;;
21245;SDS011;10781;50.928;4.440;2023-07-02T07:13:57;21.60;;;9.57;;
21245;SDS011;10781;50.928;4.440;2023-07-02T07:16:23;22.42;;;10.13;;
21245;SDS011;10781;50.928;4.440;2023-07-02T07:18:48;19.70;;;10.50;;
21245;SDS011;10781;50.928;4.440;2023-07-02T07:21:14;18.83;;;9.10;;
21245;SDS011;10781;50.928;4.440;2023-07-02T07:23:40;16.95;;;8.48;;
21245;SDS011;10781;50.928;4.440;2023-07-02T07:26:05;16.42;;;8.85;;
21245;SDS011;10781;50.928;4.440;2023-07-02T07:28:31;15.50;;;8.52;;
21245;SDS011;10781;50.928;4.440;2023-07-02T07:30:57;17.08;;;8.25;;
21245;SDS011;10781;50.928;4.440;2023-07-02T07:33:22;19.52;;;9.13;;
21245;SDS011;10781;50.928;4.440;2023-07-02T07:35:48;15.98;;;8.02;;
21245;SDS011;10781;50.928;4.440;2023-07-02T07:38:14;16.67;;;7.80;;
21245;SDS011;10781;50.928;4.440;2023-07-02T07:40:40;12.70;;;7.25;;
21245;SDS011;10781;50.928;4.440;2023-07-02T07:43:07;16.17;;;8.30;;
21245;SDS011;10781;50.928;4.440;2023-07-02T07:45:33;14.07;;;7.78;;
21245;SDS011;10781;50.928;4.440;2023-07-02T07:47:59;13.88;;;7.20;;
21245;SDS011;10781;50.928;4.440;2023-07-02T07:50:25;13.95;;;6.82;;
21245;SDS011;10781;50.928;4.440;2023-07-02T07:52:50;12.13;;;6.40;;
21245;SDS011;10781;50.928;4.440;2023-07-02T07:55:16;14.77;;;7.05;;
21245;SDS011;10781;50.928;4.440;2023-07-02T07:57:42;11.80;;;6.38;;
21245;SDS011;10781;50.928;4.440;2023-07-02T08:00:08;16.50;;;7.60;;
21245;SDS011;10781;50.928;4.440;2023-07-02T08:02:35;13.35;;;6.72;;
21245;SDS011;10781;50.928;4.440;2023-07-02T08:05:01;15.13;;;7.07;;
21245;SDS011;10781;50.928;4.440;2023-07-02T08:07:27;11.75;;;6.03;;
21245;SDS011;10781;50.928;4.440;2023-07-02T08:09:53;14.90;;;6.43;;
21245;SDS011;10781;50.928;4.440;2023-07-02T08:12:18;9.68;;;6.20;;
21245;SDS011;10781;50.928;4.440;2023-07-02T08:14:44;14.65;;;6.55;;
21245;SDS011;10781;50.928;4.440;2023-07-02T08:17:10;12.57;;;5.82;;
21245;SDS011;10781;50.928;4.440;2023-07-02T08:19:35;12.82;;;6.13;;
21245;SDS011;10781;50.928;4.440;2023-07-02T08:22:01;11.23;;;6.43;;
21245;SDS011;10781;50.928;4.440;2023-07-02T08:24:28;11.52;;;6.38;;
21245;SDS011;10781;50.928;4.440;2023-07-02T08:26:55;13.10;;;6.95;;
21245;SDS011;10781;50.928;4.440;2023-07-02T08:29:21;11.48;;;6.25;;
21245;SDS011;10781;50.928;4.440;2023-07-02T08:31:47;14.43;;;6.47;;
21245;SDS011;10781;50.928;4.440;2023-07-02T08:34:12;14.32;;;6.78;;
21245;SDS011;10781;50.928;4.440;2023-07-02T08:36:38;10.93;;;6.55;;
21245;SDS011;10781;50.928;4.440;2023-07-02T08:39:04;12.80;;;7.28;;
21245;SDS011;10781;50.928;4.440;2023-07-02T08:41:30;15.43;;;7.78;;
21245;SDS011;10781;50.928;4.440;2023-07-02T08:44:06;15.23;;;8.02;;
21245;SDS011;10781;50.928;4.440;2023-07-02T08:46:32;14.60;;;7.90;;
21245;SDS011;10781;50.928;4.440;2023-07-02T08:48:57;16.27;;;7.55;;
21245;SDS011;10781;50.928;4.440;2023-07-02T08:51:23;19.45;;;8.23;;
21245;SDS011;10781;50.928;4.440;2023-07-02T08:53:49;15.20;;;7.85;;
21245;SDS011;10781;50.928;4.440;2023-07-02T08:56:14;17.00;;;8.70;;
21245;SDS011;10781;50.928;4.440;2023-07-02T08:58:40;16.27;;;8.70;;
21245;SDS011;10781;50.928;4.440;2023-07-02T09:01:13;14.82;;;8.55;;
21245;SDS011;10781;50.928;4.440;2023-07-02T09:03:39;16.70;;;8.98;;
21245;SDS011;10781;50.928;4.440;2023-07-02T09:06:06;19.58;;;9.05;;
21245;SDS011;10781;50.928;4.440;2023-07-02T09:08:33;20.05;;;9.13;;
21245;SDS011;10781;50.928;4.440;2023-07-02T09:11:12;18.77;;;9.05;;
21245;SDS011;10781;50.928;4.440;2023-07-02T09:13:45;16.65;;;8.50;;
21245;SDS011;10781;50.928;4.440;2023-07-02T09:18:57;17.25;;;9.05;;
21245;SDS011;10781;50.928;4.440;2023-07-02T09:21:25;17.25;;;8.98;;
21245;SDS011;10781;50.928;4.440;2023-07-02T09:26:49;17.63;;;9.07;;
21245;SDS011;10781;50.928;4.440;2023-07-02T09:29:21;20.63;;;10.05;;
21245;SDS011;10781;50.928;4.440;2023-07-02T09:31:50;19.38;;;9.57;;
21245;SDS011;10781;50.928;4.440;2023-07-02T09:34:16;19.90;;;9.43;;
21245;SDS011;10781;50.928;4.440;2023-07-02T09:36:42;17.20;;;9.43;;
21245;SDS011;10781;50.928;4.440;2023-07-02T09:39:11;24.75;;;10.98;;
21245;SDS011;10781;50.928;4.440;2023-07-02T09:41:39;18.52;;;10.60;;
21245;SDS011;10781;50.928;4.440;2023-07-02T09:44:07;19.17;;;10.50;;
21245;SDS011;10781;50.928;4.440;2023-07-02T09:46:35;20.60;;;10.07;;
21245;SDS011;10781;50.928;4.440;2023-07-02T09:49:06;17.38;;;9.80;;
21245;SDS011;10781;50.928;4.440;2023-07-02T09:51:37;18.58;;;9.23;;
21245;SDS011;10781;50.928;4.440;2023-07-02T09:54:04;17.25;;;9.85;;
21245;SDS011;10781;50.928;4.440;2023-07-02T09:56:30;20.10;;;10.02;;
21245;SDS011;10781;50.928;4.440;2023-07-02T09:58:55;20.55;;;9.70;;
21245;SDS011;10781;50.928;4.440;2023-07-02T10:01:22;21.70;;;10.07;;
21245;SDS011;10781;50.928;4.440;2023-07-02T10:03:47;18.23;;;9.40;;
21245;SDS011;10781;50.928;4.440;2023-07-02T10:06:13;17.30;;;9.32;;
21245;SDS011;10781;50.928;4.440;2023-07-02T10:08:39;14.85;;;8.65;;
21245;SDS011;10781;50.928;4.440;2023-07-02T10:13:34;20.40;;;10.10;;
21245;SDS011;10781;50.928;4.440;2023-07-02T10:16:03;17.58;;;9.20;;
21245;SDS011;10781;50.928;4.440;2023-07-02T10:18:29;20.50;;;10.35;;
21245;SDS011;10781;50.928;4.440;2023-07-02T10:20:55;17.52;;;9.95;;
21245;SDS011;10781;50.928;4.440;2023-07-02T10:23:21;20.40;;;9.23;;
21245;SDS011;10781;50.928;4.440;2023-07-02T10:26:13;15.10;;;8.95;;
21245;SDS011;10781;50.928;4.440;2023-07-02T10:28:40;16.10;;;9.85;;
21245;SDS011;10781;50.928;4.440;2023-07-02T10:31:17;18.73;;;9.50;;
21245;SDS011;10781;50.928;4.440;2023-07-02T10:33:44;20.13;;;9.50;;
21245;SDS011;10781;50.928;4.440;2023-07-02T10:36:17;17.75;;;9.25;;
21245;SDS011;10781;50.928;4.440;2023-07-02T10:38:44;20.08;;;9.50;;
21245;SDS011;10781;50.928;4.440;2023-07-02T10:41:10;20.52;;;9.27;;
21245;SDS011;10781;50.928;4.440;2023-07-02T10:43:35;20.63;;;10.10;;
21245;SDS011;10781;50.928;4.440;2023-07-02T10:46:01;17.67;;;9.10;;
21245;SDS011;10781;50.928;4.440;2023-07-02T10:48:30;15.15;;;8.70;;
21245;SDS011;10781;50.928;4.440;2023-07-02T10:50:56;17.90;;;9.25;;
21245;SDS011;10781;50.928;4.440;2023-07-02T10:53:22;18.10;;;9.35;;
21245;SDS011;10781;50.928;4.440;2023-07-02T10:55:54;18.08;;;9.05;;
21245;SDS011;10781;50.928;4.440;2023-07-02T10:58:21;16.23;;;8.70;;
21245;SDS011;10781;50.928;4.440;2023-07-02T11:00:47;15.05;;;9.00;;
21245;SDS011;10781;50.928;4.440;2023-07-02T11:05:44;16.58;;;9.02;;
21245;SDS011;10781;50.928;4.440;2023-07-02T11:08:11;19.80;;;9.45;;
21245;SDS011;10781;50.928;4.440;2023-07-02T11:10:36;18.38;;;8.85;;
21245;SDS011;10781;50.928;4.440;2023-07-02T11:13:18;19.35;;;9.57;;
21245;SDS011;10781;50.928;4.440;2023-07-02T11:15:45;20.02;;;9.45;;
21245;SDS011;10781;50.928;4.440;2023-07-02T11:18:12;21.95;;;10.00;;
21245;SDS011;10781;50.928;4.440;2023-07-02T11:20:40;20.08;;;9.82;;
21245;SDS011;10781;50.928;4.440;2023-07-02T11:23:23;16.75;;;9.30;;
21245;SDS011;10781;50.928;4.440;2023-07-02T11:25:59;17.35;;;9.32;;
21245;SDS011;10781;50.928;4.440;2023-07-02T11:28:26;17.55;;;9.57;;
21245;SDS011;10781;50.928;4.440;2023-07-02T11:30:52;16.30;;;8.95;;
21245;SDS011;10781;50.928;4.440;2023-07-02T11:33:18;16.90;;;9.43;;
21245;SDS011;10781;50.928;4.440;2023-07-02T11:35:46;18.25;;;9.18;;
21245;SDS011;10781;50.928;4.440;2023-07-02T11:38:11;19.83;;;9.35;;
21245;SDS011;10781;50.928;4.440;2023-07-02T11:40:38;15.00;;;8.73;;
21245;SDS011;10781;50.928;4.440;2023-07-02T11:43:03;18.17;;;9.07;;
21245;SDS011;10781;50.928;4.440;2023-07-02T11:45:31;18.60;;;10.38;;
21245;SDS011;10781;50.928;4.440;2023-07-02T11:47:56;17.65;;;8.82;;
21245;SDS011;10781;50.928;4.440;2023-07-02T11:50:22;15.68;;;8.48;;
21245;SDS011;10781;50.928;4.440;2023-07-02T11:52:48;15.82;;;8.90;;
21245;SDS011;10781;50.928;4.440;2023-07-02T11:55:13;16.38;;;9.27;;
21245;SDS011;10781;50.928;4.440;2023-07-02T11:57:39;16.90;;;9.52;;
21245;SDS011;10781;50.928;4.440;2023-07-02T12:00:05;16.73;;;9.30;;
21245;SDS011;10781;50.928;4.440;2023-07-02T12:02:31;16.42;;;8.65;;
21245;SDS011;10781;50.928;4.440;2023-07-02T12:04:57;18.95;;;8.73;;
21245;SDS011;10781;50.928;4.440;2023-07-02T12:07:22;16.73;;;9.23;;
21245;SDS011;10781;50.928;4.440;2023-07-02T12:09:48;17.20;;;8.50;;
21245;SDS011;10781;50.928;4.440;2023-07-02T12:12:14;15.60;;;8.73;;
21245;SDS011;10781;50.928;4.440;2023-07-02T12:14:39;17.00;;;8.60;;
21245;SDS011;10781;50.928;4.440;2023-07-02T12:17:08;16.15;;;8.82;;
21245;SDS011;10781;50.928;4.440;2023-07-02T12:19:37;16.60;;;9.05;;
21245;SDS011;10781;50.928;4.440;2023-07-02T12:22:06;14.60;;;8.73;;
21245;SDS011;10781;50.928;4.440;2023-07-02T12:24:32;16.67;;;8.35;;
21245;SDS011;10781;50.928;4.440;2023-07-02T12:26:58;15.52;;;8.20;;
21245;SDS011;10781;50.928;4.440;2023-07-02T12:29:23;16.23;;;7.97;;
21245;SDS011;10781;50.928;4.440;2023-07-02T12:31:49;14.25;;;7.97;;
21245;SDS011;10781;50.928;4.440;2023-07-02T12:34:14;15.27;;;7.63;;
21245;SDS011;10781;50.928;4.440;2023-07-02T12:36:40;16.27;;;7.95;;
21245;SDS011;10781;50.928;4.440;2023-07-02T12:39:06;18.50;;;8.77;;
21245;SDS011;10781;50.928;4.440;2023-07-02T12:41:32;13.95;;;7.70;;
21245;SDS011;10781;50.928;4.440;2023-07-02T12:43:58;15.35;;;8.07;;
21245;SDS011;10781;50.928;4.440;2023-07-02T12:46:24;12.77;;;7.55;;
21245;SDS011;10781;50.928;4.440;2023-07-02T12:48:50;17.20;;;8.30;;
21245;SDS011;10781;50.928;4.440;2023-07-02T12:51:16;12.45;;;7.35;;
21245;SDS011;10781;50.928;4.440;2023-07-02T12:53:41;13.15;;;7.80;;
21245;SDS011;10781;50.928;4.440;2023-07-02T12:56:07;14.60;;;7.88;;
21245;SDS011;10781;50.928;4.440;2023-07-02T12:58:33;12.00;;;7.28;;
21245;SDS011;10781;50.928;4.440;2023-07-02T13:00:58;10.95;;;7.60;;
21245;SDS011;10781;50.928;4.440;2023-07-02T13:03:24;13.82;;;8.05;;
21245;SDS011;10781;50.928;4.440;2023-07-02T13:05:50;14.25;;;7.70;;
21245;SDS011;10781;50.928;4.440;2023-07-02T13:08:15;14.52;;;7.35;;
21245;SDS011;10781;50.928;4.440;2023-07-02T13:10:41;14.95;;;7.90;;
21245;SDS011;10781;50.928;4.440;2023-07-02T13:13:07;14.52;;;7.70;;
21245;SDS011;10781;50.928;4.440;2023-07-02T13:15:33;14.30;;;7.25;;
21245;SDS011;10781;50.928;4.440;2023-07-02T13:18:00;12.88;;;7.47;;
21245;SDS011;10781;50.928;4.440;2023-07-02T13:20:26;13.20;;;7.25;;
21245;SDS011;10781;50.928;4.440;2023-07-02T13:22:52;15.65;;;8.00;;
21245;SDS011;10781;50.928;4.440;2023-07-02T13:25:17;14.20;;;7.35;;
21245;SDS011;10781;50.928;4.440;2023-07-02T13:27:43;13.38;;;7.70;;
21245;SDS011;10781;50.928;4.440;2023-07-02T13:30:09;11.25;;;7.07;;
21245;SDS011;10781;50.928;4.440;2023-07-02T13:32:35;11.77;;;7.00;;
21245;SDS011;10781;50.928;4.440;2023-07-02T13:35:00;12.30;;;7.03;;
21245;SDS011;10781;50.928;4.440;2023-07-02T13:37:26;10.85;;;7.18;;
21245;SDS011;10781;50.928;4.440;2023-07-02T13:39:52;20.80;;;8.25;;
21245;SDS011;10781;50.928;4.440;2023-07-02T13:42:17;12.13;;;6.97;;
21245;SDS011;10781;50.928;4.440;2023-07-02T13:44:44;10.48;;;7.00;;
21245;SDS011;10781;50.928;4.440;2023-07-02T13:47:10;11.68;;;6.85;;
21245;SDS011;10781;50.928;4.440;2023-07-02T13:49:36;12.10;;;7.38;;
21245;SDS011;10781;50.928;4.440;2023-07-02T13:52:02;14.23;;;7.53;;
21245;SDS011;10781;50.928;4.440;2023-07-02T13:54:27;13.55;;;7.05;;
21245;SDS011;10781;50.928;4.440;2023-07-02T13:56:53;13.77;;;7.65;;
21245;SDS011;10781;50.928;4.440;2023-07-02T13:59:20;11.70;;;7.05;;
21245;SDS011;10781;50.928;4.440;2023-07-02T14:01:47;15.45;;;7.50;;
21245;SDS011;10781;50.928;4.440;2023-07-02T14:04:13;13.75;;;6.95;;
21245;SDS011;10781;50.928;4.440;2023-07-02T14:06:39;13.40;;;6.95;;
21245;SDS011;10781;50.928;4.440;2023-07-02T14:09:05;12.32;;;7.00;;
21245;SDS011;10781;50.928;4.440;2023-07-02T14:11:33;13.30;;;6.88;;
21245;SDS011;10781;50.928;4.440;2023-07-02T14:14:00;12.95;;;7.40;;
21245;SDS011;10781;50.928;4.440;2023-07-02T14:16:25;13.23;;;6.93;;
21245;SDS011;10781;50.928;4.440;2023-07-02T14:18:51;12.55;;;7.13;;
21245;SDS011;10781;50.928;4.440;2023-07-02T14:21:17;12.38;;;7.25;;
21245;SDS011;10781;50.928;4.440;2023-07-02T14:23:43;14.05;;;7.35;;
21245;SDS011;10781;50.928;4.440;2023-07-02T14:26:09;12.43;;;6.90;;
21245;SDS011;10781;50.928;4.440;2023-07-02T14:28:35;13.55;;;6.90;;
21245;SDS011;10781;50.928;4.440;2023-07-02T14:31:02;12.95;;;6.60;;
21245;SDS011;10781;50.928;4.440;2023-07-02T14:33:29;11.00;;;6.50;;